sensor_id;sensor_type;location;lat;lon;timestamp;P1;durP1;ratioP1;P2;durP2;ratioP2
18159;SDS011;9205;52.032;4.314;2023-05-07T00:00:23;27.00;;;13.83;;
18159;SDS011;9205;52.032;4.314;2023-05-07T00:02:50;30.33;;;13.73;;
18159;SDS011;9205;52.032;4.314;2023-05-07T00:05:18;29.07;;;14.27;;
18159;SDS011;9205;52.032;4.314;2023-05-07T00:07:45;27.23;;;14.40;;
18159;SDS011;9205;52.032;4.314;2023-05-07T00:10:14;31.37;;;14.73;;
18159;SDS011;9205;52.032;4.314;2023-05-07T00:12:41;33.60;;;15.90;;
18159;SDS011;9205;52.032;4.314;2023-05-07T00:15:08;27.97;;;14.57;;
18159;SDS011;9205;52.032;4.314;2023-05-07T00:17:36;28.73;;;14.60;;
18159;SDS011;9205;52.032;4.314;2023-05-07T00:20:04;29.63;;;14.10;;
18159;SDS011;9205;52.032;4.314;2023-05-07T00:22:33;35.10;;;15.90;;
18159;SDS011;9205;52.032;4.314;2023-05-07T00:25:00;27.13;;;14.47;;
18159;SDS011;9205;52.032;4.314;2023-05-07T00:27:28;28.93;;;14.93;;
18159;SDS011;9205;52.032;4.314;2023-05-07T00:29:56;28.03;;;14.67;;
18159;SDS011;9205;52.032;4.314;2023-05-07T00:32:23;32.53;;;14.57;;
18159;SDS011;9205;52.032;4.314;2023-05-07T00:34:50;30.33;;;14.40;;
18159;SDS011;9205;52.032;4.314;2023-05-07T00:37:17;33.13;;;15.60;;
18159;SDS011;9205;52.032;4.314;2023-05-07T00:39:44;28.50;;;15.73;;
18159;SDS011;9205;52.032;4.314;2023-05-07T00:42:12;31.23;;;14.73;;
18159;SDS011;9205;52.032;4.314;2023-05-07T00:44:41;30.53;;;14.90;;
18159;SDS011;9205;52.032;4.314;2023-05-07T00:47:08;34.20;;;15.50;;
18159;SDS011;9205;52.032;4.314;2023-05-07T00:49:37;27.90;;;15.23;;
18159;SDS011;9205;52.032;4.314;2023-05-07T00:52:08;36.23;;;15.97;;
18159;SDS011;9205;52.032;4.314;2023-05-07T00:54:39;31.23;;;14.97;;
18159;SDS011;9205;52.032;4.314;2023-05-07T00:57:08;32.17;;;14.97;;
18159;SDS011;9205;52.032;4.314;2023-05-07T00:59:37;31.47;;;15.97;;
18159;SDS011;9205;52.032;4.314;2023-05-07T01:02:07;33.87;;;15.73;;
18159;SDS011;9205;52.032;4.314;2023-05-07T01:04:34;30.23;;;15.20;;
18159;SDS011;9205;52.032;4.314;2023-05-07T01:07:01;31.90;;;15.50;;
18159;SDS011;9205;52.032;4.314;2023-05-07T01:09:30;31.93;;;15.80;;
18159;SDS011;9205;52.032;4.314;2023-05-07T01:12:00;34.33;;;16.70;;
18159;SDS011;9205;52.032;4.314;2023-05-07T01:14:28;31.13;;;15.00;;
18159;SDS011;9205;52.032;4.314;2023-05-07T01:16:56;30.60;;;15.07;;
18159;SDS011;9205;52.032;4.314;2023-05-07T01:19:25;34.53;;;16.17;;
18159;SDS011;9205;52.032;4.314;2023-05-07T01:21:56;32.87;;;15.70;;
18159;SDS011;9205;52.032;4.314;2023-05-07T01:24:42;30.80;;;15.23;;
18159;SDS011;9205;52.032;4.314;2023-05-07T01:27:11;32.40;;;14.97;;
18159;SDS011;9205;52.032;4.314;2023-05-07T01:29:39;29.93;;;15.80;;
18159;SDS011;9205;52.032;4.314;2023-05-07T01:32:07;32.87;;;15.00;;
18159;SDS011;9205;52.032;4.314;2023-05-07T01:34:35;27.23;;;14.80;;
18159;SDS011;9205;52.032;4.314;2023-05-07T01:37:04;27.97;;;15.20;;
18159;SDS011;9205;52.032;4.314;2023-05-07T01:39:31;27.83;;;14.17;;
18159;SDS011;9205;52.032;4.314;2023-05-07T01:42:02;29.40;;;15.17;;
18159;SDS011;9205;52.032;4.314;2023-05-07T01:44:29;26.90;;;13.80;;
18159;SDS011;9205;52.032;4.314;2023-05-07T01:46:57;31.90;;;14.50;;
18159;SDS011;9205;52.032;4.314;2023-05-07T01:49:24;26.63;;;13.80;;
18159;SDS011;9205;52.032;4.314;2023-05-07T01:51:52;28.40;;;14.10;;
18159;SDS011;9205;52.032;4.314;2023-05-07T01:54:24;28.33;;;14.13;;
18159;SDS011;9205;52.032;4.314;2023-05-07T01:56:54;32.33;;;14.70;;
18159;SDS011;9205;52.032;4.314;2023-05-07T01:59:24;25.13;;;13.30;;
18159;SDS011;9205;52.032;4.314;2023-05-07T02:01:51;28.23;;;14.70;;
18159;SDS011;9205;52.032;4.314;2023-05-07T02:04:19;27.40;;;13.83;;
18159;SDS011;9205;52.032;4.314;2023-05-07T02:06:46;28.27;;;14.23;;
18159;SDS011;9205;52.032;4.314;2023-05-07T02:09:14;28.20;;;13.57;;
18159;SDS011;9205;52.032;4.314;2023-05-07T02:11:44;30.97;;;13.63;;
18159;SDS011;9205;52.032;4.314;2023-05-07T02:14:12;26.60;;;12.77;;
18159;SDS011;9205;52.032;4.314;2023-05-07T02:16:40;25.37;;;12.40;;
18159;SDS011;9205;52.032;4.314;2023-05-07T02:19:10;23.23;;;12.37;;
18159;SDS011;9205;52.032;4.314;2023-05-07T02:21:37;28.20;;;13.20;;
18159;SDS011;9205;52.032;4.314;2023-05-07T02:24:04;28.23;;;14.13;;
18159;SDS011;9205;52.032;4.314;2023-05-07T02:26:32;27.47;;;12.60;;
18159;SDS011;9205;52.032;4.314;2023-05-07T02:28:59;24.80;;;12.63;;
18159;SDS011;9205;52.032;4.314;2023-05-07T02:31:27;24.57;;;12.13;;
18159;SDS011;9205;52.032;4.314;2023-05-07T02:33:55;24.07;;;11.83;;
18159;SDS011;9205;52.032;4.314;2023-05-07T02:36:23;25.50;;;12.63;;
18159;SDS011;9205;52.032;4.314;2023-05-07T02:39:00;25.00;;;12.30;;
18159;SDS011;9205;52.032;4.314;2023-05-07T02:41:28;22.47;;;11.80;;
18159;SDS011;9205;52.032;4.314;2023-05-07T02:43:55;20.77;;;11.33;;
18159;SDS011;9205;52.032;4.314;2023-05-07T02:46:22;23.10;;;11.60;;
18159;SDS011;9205;52.032;4.314;2023-05-07T02:48:58;25.73;;;11.93;;
18159;SDS011;9205;52.032;4.314;2023-05-07T02:51:26;23.00;;;12.10;;
18159;SDS011;9205;52.032;4.314;2023-05-07T02:53:55;23.33;;;12.13;;
18159;SDS011;9205;52.032;4.314;2023-05-07T02:56:22;22.43;;;12.00;;
18159;SDS011;9205;52.032;4.314;2023-05-07T02:58:53;24.60;;;12.80;;
18159;SDS011;9205;52.032;4.314;2023-05-07T03:01:22;22.97;;;11.90;;
18159;SDS011;9205;52.032;4.314;2023-05-07T03:03:57;21.33;;;11.67;;
18159;SDS011;9205;52.032;4.314;2023-05-07T03:06:25;22.43;;;12.50;;
18159;SDS011;9205;52.032;4.314;2023-05-07T03:08:52;23.80;;;12.23;;
18159;SDS011;9205;52.032;4.314;2023-05-07T03:11:20;24.47;;;11.97;;
18159;SDS011;9205;52.032;4.314;2023-05-07T03:13:47;24.20;;;12.63;;
18159;SDS011;9205;52.032;4.314;2023-05-07T03:16:16;22.10;;;12.73;;
18159;SDS011;9205;52.032;4.314;2023-05-07T03:18:43;23.67;;;12.30;;
18159;SDS011;9205;52.032;4.314;2023-05-07T03:21:12;21.97;;;12.17;;
18159;SDS011;9205;52.032;4.314;2023-05-07T03:23:40;22.17;;;12.47;;
18159;SDS011;9205;52.032;4.314;2023-05-07T03:26:07;21.10;;;13.10;;
18159;SDS011;9205;52.032;4.314;2023-05-07T03:28:34;22.63;;;12.20;;
18159;SDS011;9205;52.032;4.314;2023-05-07T03:31:06;21.43;;;12.57;;
18159;SDS011;9205;52.032;4.314;2023-05-07T03:33:33;23.43;;;13.70;;
18159;SDS011;9205;52.032;4.314;2023-05-07T03:36:01;25.90;;;12.77;;
18159;SDS011;9205;52.032;4.314;2023-05-07T03:38:30;26.00;;;13.97;;
18159;SDS011;9205;52.032;4.314;2023-05-07T03:40:57;20.00;;;11.73;;
18159;SDS011;9205;52.032;4.314;2023-05-07T03:43:25;25.23;;;14.30;;
18159;SDS011;9205;52.032;4.314;2023-05-07T03:46:00;25.43;;;13.57;;
18159;SDS011;9205;52.032;4.314;2023-05-07T03:48:28;22.90;;;12.13;;
18159;SDS011;9205;52.032;4.314;2023-05-07T03:50:57;22.40;;;12.67;;
18159;SDS011;9205;52.032;4.314;2023-05-07T03:53:31;19.63;;;12.17;;
18159;SDS011;9205;52.032;4.314;2023-05-07T03:55:58;23.93;;;13.53;;
18159;SDS011;9205;52.032;4.314;2023-05-07T03:58:27;22.83;;;12.03;;
18159;SDS011;9205;52.032;4.314;2023-05-07T04:00:57;22.50;;;13.23;;
18159;SDS011;9205;52.032;4.314;2023-05-07T04:03:27;19.23;;;11.70;;
18159;SDS011;9205;52.032;4.314;2023-05-07T04:05:58;22.10;;;12.97;;
18159;SDS011;9205;52.032;4.314;2023-05-07T04:08:25;25.50;;;13.07;;
18159;SDS011;9205;52.032;4.314;2023-05-07T04:10:58;22.37;;;12.87;;
18159;SDS011;9205;52.032;4.314;2023-05-07T04:13:29;26.10;;;13.67;;
18159;SDS011;9205;52.032;4.314;2023-05-07T04:15:57;19.40;;;11.90;;
18159;SDS011;9205;52.032;4.314;2023-05-07T04:18:25;18.63;;;11.40;;
18159;SDS011;9205;52.032;4.314;2023-05-07T04:20:52;21.50;;;12.60;;
18159;SDS011;9205;52.032;4.314;2023-05-07T04:23:20;18.90;;;11.70;;
18159;SDS011;9205;52.032;4.314;2023-05-07T04:25:48;21.13;;;11.97;;
18159;SDS011;9205;52.032;4.314;2023-05-07T04:28:22;18.80;;;11.00;;
18159;SDS011;9205;52.032;4.314;2023-05-07T04:30:50;18.90;;;12.00;;
18159;SDS011;9205;52.032;4.314;2023-05-07T04:33:18;19.67;;;11.43;;
18159;SDS011;9205;52.032;4.314;2023-05-07T04:35:47;19.13;;;11.47;;
18159;SDS011;9205;52.032;4.314;2023-05-07T04:38:14;18.70;;;11.50;;
18159;SDS011;9205;52.032;4.314;2023-05-07T04:40:42;17.90;;;11.43;;
18159;SDS011;9205;52.032;4.314;2023-05-07T04:43:13;19.10;;;11.77;;
18159;SDS011;9205;52.032;4.314;2023-05-07T04:45:47;19.70;;;12.33;;
18159;SDS011;9205;52.032;4.314;2023-05-07T04:48:16;18.60;;;11.10;;
18159;SDS011;9205;52.032;4.314;2023-05-07T04:50:47;19.43;;;11.70;;
18159;SDS011;9205;52.032;4.314;2023-05-07T04:53:15;19.27;;;11.47;;
18159;SDS011;9205;52.032;4.314;2023-05-07T04:55:42;16.83;;;10.53;;
18159;SDS011;9205;52.032;4.314;2023-05-07T04:58:10;19.63;;;10.93;;
18159;SDS011;9205;52.032;4.314;2023-05-07T05:00:39;18.73;;;11.07;;
18159;SDS011;9205;52.032;4.314;2023-05-07T05:03:09;21.40;;;11.97;;
18159;SDS011;9205;52.032;4.314;2023-05-07T05:05:38;21.40;;;11.73;;
18159;SDS011;9205;52.032;4.314;2023-05-07T05:08:05;19.73;;;11.67;;
18159;SDS011;9205;52.032;4.314;2023-05-07T05:10:35;19.07;;;12.03;;
18159;SDS011;9205;52.032;4.314;2023-05-07T05:13:06;19.87;;;11.63;;
18159;SDS011;9205;52.032;4.314;2023-05-07T05:15:34;16.10;;;10.50;;
18159;SDS011;9205;52.032;4.314;2023-05-07T05:18:02;19.50;;;10.93;;
18159;SDS011;9205;52.032;4.314;2023-05-07T05:20:31;17.70;;;10.83;;
18159;SDS011;9205;52.032;4.314;2023-05-07T05:22:58;18.47;;;11.03;;
18159;SDS011;9205;52.032;4.314;2023-05-07T05:25:25;20.60;;;11.30;;
18159;SDS011;9205;52.032;4.314;2023-05-07T05:27:53;19.90;;;11.77;;
18159;SDS011;9205;52.032;4.314;2023-05-07T05:30:22;17.63;;;10.97;;
18159;SDS011;9205;52.032;4.314;2023-05-07T05:32:49;19.70;;;10.97;;
18159;SDS011;9205;52.032;4.314;2023-05-07T05:35:17;18.53;;;11.10;;
18159;SDS011;9205;52.032;4.314;2023-05-07T05:37:45;18.90;;;10.67;;
18159;SDS011;9205;52.032;4.314;2023-05-07T05:40:14;18.50;;;10.80;;
18159;SDS011;9205;52.032;4.314;2023-05-07T05:42:42;16.70;;;10.43;;
18159;SDS011;9205;52.032;4.314;2023-05-07T05:45:09;17.70;;;10.73;;
18159;SDS011;9205;52.032;4.314;2023-05-07T05:47:38;18.53;;;11.33;;
18159;SDS011;9205;52.032;4.314;2023-05-07T05:50:06;17.90;;;11.07;;
18159;SDS011;9205;52.032;4.314;2023-05-07T05:52:34;19.13;;;11.80;;
18159;SDS011;9205;52.032;4.314;2023-05-07T05:55:03;20.30;;;10.83;;
18159;SDS011;9205;52.032;4.314;2023-05-07T05:57:31;17.40;;;11.27;;
18159;SDS011;9205;52.032;4.314;2023-05-07T05:59:59;19.07;;;10.90;;
18159;SDS011;9205;52.032;4.314;2023-05-07T06:02:31;18.73;;;11.43;;
18159;SDS011;9205;52.032;4.314;2023-05-07T06:04:58;18.47;;;11.33;;
18159;SDS011;9205;52.032;4.314;2023-05-07T06:07:26;17.93;;;11.43;;
18159;SDS011;9205;52.032;4.314;2023-05-07T06:09:53;17.03;;;10.90;;
18159;SDS011;9205;52.032;4.314;2023-05-07T06:12:22;18.10;;;10.83;;
18159;SDS011;9205;52.032;4.314;2023-05-07T06:14:50;16.13;;;10.73;;
18159;SDS011;9205;52.032;4.314;2023-05-07T06:17:17;17.50;;;10.03;;
18159;SDS011;9205;52.032;4.314;2023-05-07T06:19:45;15.60;;;10.20;;
18159;SDS011;9205;52.032;4.314;2023-05-07T06:22:13;18.97;;;10.87;;
18159;SDS011;9205;52.032;4.314;2023-05-07T06:24:40;20.93;;;11.00;;
18159;SDS011;9205;52.032;4.314;2023-05-07T06:27:08;16.70;;;9.73;;
18159;SDS011;9205;52.032;4.314;2023-05-07T06:29:37;15.43;;;10.67;;
18159;SDS011;9205;52.032;4.314;2023-05-07T06:32:11;16.17;;;10.67;;
18159;SDS011;9205;52.032;4.314;2023-05-07T06:34:42;14.17;;;9.87;;
18159;SDS011;9205;52.032;4.314;2023-05-07T06:37:09;17.30;;;11.00;;
18159;SDS011;9205;52.032;4.314;2023-05-07T06:39:56;18.60;;;11.27;;
18159;SDS011;9205;52.032;4.314;2023-05-07T06:42:23;18.27;;;11.63;;
18159;SDS011;9205;52.032;4.314;2023-05-07T06:44:57;15.93;;;10.37;;
18159;SDS011;9205;52.032;4.314;2023-05-07T06:47:25;19.80;;;10.77;;
18159;SDS011;9205;52.032;4.314;2023-05-07T06:49:54;15.83;;;10.80;;
18159;SDS011;9205;52.032;4.314;2023-05-07T06:52:24;16.60;;;10.60;;
18159;SDS011;9205;52.032;4.314;2023-05-07T06:54:52;17.27;;;11.13;;
18159;SDS011;9205;52.032;4.314;2023-05-07T06:57:21;19.43;;;11.67;;
18159;SDS011;9205;52.032;4.314;2023-05-07T06:59:50;19.93;;;11.17;;
18159;SDS011;9205;52.032;4.314;2023-05-07T07:02:20;18.80;;;11.00;;
18159;SDS011;9205;52.032;4.314;2023-05-07T07:04:48;16.03;;;10.33;;
18159;SDS011;9205;52.032;4.314;2023-05-07T07:07:16;20.83;;;11.30;;
18159;SDS011;9205;52.032;4.314;2023-05-07T07:09:45;14.97;;;10.07;;
18159;SDS011;9205;52.032;4.314;2023-05-07T07:12:15;17.40;;;10.60;;
18159;SDS011;9205;52.032;4.314;2023-05-07T07:14:42;15.67;;;10.03;;
18159;SDS011;9205;52.032;4.314;2023-05-07T07:17:11;15.43;;;9.50;;
18159;SDS011;9205;52.032;4.314;2023-05-07T07:19:40;15.57;;;10.10;;
18159;SDS011;9205;52.032;4.314;2023-05-07T07:22:07;18.30;;;10.00;;
18159;SDS011;9205;52.032;4.314;2023-05-07T07:24:35;16.23;;;9.87;;
18159;SDS011;9205;52.032;4.314;2023-05-07T07:27:05;12.03;;;8.17;;
18159;SDS011;9205;52.032;4.314;2023-05-07T07:29:33;12.47;;;8.57;;
18159;SDS011;9205;52.032;4.314;2023-05-07T07:32:01;12.70;;;8.17;;
18159;SDS011;9205;52.032;4.314;2023-05-07T07:34:29;13.60;;;8.83;;
18159;SDS011;9205;52.032;4.314;2023-05-07T07:36:58;11.17;;;7.33;;
18159;SDS011;9205;52.032;4.314;2023-05-07T07:39:30;13.90;;;9.17;;
18159;SDS011;9205;52.032;4.314;2023-05-07T07:41:58;12.43;;;8.70;;
18159;SDS011;9205;52.032;4.314;2023-05-07T07:44:27;17.83;;;8.47;;
18159;SDS011;9205;52.032;4.314;2023-05-07T07:46:59;14.63;;;8.43;;
18159;SDS011;9205;52.032;4.314;2023-05-07T07:49:27;12.90;;;8.33;;
18159;SDS011;9205;52.032;4.314;2023-05-07T07:51:58;14.57;;;8.23;;
18159;SDS011;9205;52.032;4.314;2023-05-07T07:54:25;12.03;;;8.10;;
18159;SDS011;9205;52.032;4.314;2023-05-07T07:56:53;12.97;;;8.13;;
18159;SDS011;9205;52.032;4.314;2023-05-07T07:59:21;13.50;;;8.07;;
18159;SDS011;9205;52.032;4.314;2023-05-07T08:01:49;12.80;;;8.53;;
18159;SDS011;9205;52.032;4.314;2023-05-07T08:04:18;12.33;;;8.00;;
18159;SDS011;9205;52.032;4.314;2023-05-07T08:06:46;12.93;;;8.40;;
18159;SDS011;9205;52.032;4.314;2023-05-07T08:09:15;10.37;;;7.47;;
18159;SDS011;9205;52.032;4.314;2023-05-07T08:11:42;11.93;;;7.47;;
18159;SDS011;9205;52.032;4.314;2023-05-07T08:14:09;14.73;;;7.40;;
18159;SDS011;9205;52.032;4.314;2023-05-07T08:16:38;11.50;;;7.17;;
18159;SDS011;9205;52.032;4.314;2023-05-07T08:19:06;14.03;;;7.73;;
18159;SDS011;9205;52.032;4.314;2023-05-07T08:21:34;11.37;;;6.63;;
18159;SDS011;9205;52.032;4.314;2023-05-07T08:24:04;13.43;;;7.90;;
18159;SDS011;9205;52.032;4.314;2023-05-07T08:26:33;9.57;;;6.70;;
18159;SDS011;9205;52.032;4.314;2023-05-07T08:29:01;14.30;;;7.67;;
18159;SDS011;9205;52.032;4.314;2023-05-07T08:31:29;10.67;;;6.43;;
18159;SDS011;9205;52.032;4.314;2023-05-07T08:33:56;15.43;;;8.07;;
18159;SDS011;9205;52.032;4.314;2023-05-07T08:36:24;11.73;;;7.80;;
18159;SDS011;9205;52.032;4.314;2023-05-07T08:38:52;10.37;;;7.57;;
18159;SDS011;9205;52.032;4.314;2023-05-07T08:41:20;14.03;;;7.30;;
18159;SDS011;9205;52.032;4.314;2023-05-07T08:43:49;15.73;;;7.83;;
18159;SDS011;9205;52.032;4.314;2023-05-07T08:46:19;11.20;;;7.00;;
18159;SDS011;9205;52.032;4.314;2023-05-07T08:48:52;11.70;;;7.37;;
18159;SDS011;9205;52.032;4.314;2023-05-07T08:51:20;11.17;;;7.53;;
18159;SDS011;9205;52.032;4.314;2023-05-07T08:53:49;11.33;;;7.20;;
18159;SDS011;9205;52.032;4.314;2023-05-07T08:56:28;11.40;;;7.03;;
18159;SDS011;9205;52.032;4.314;2023-05-07T08:58:56;10.23;;;7.30;;
18159;SDS011;9205;52.032;4.314;2023-05-07T09:01:25;14.00;;;7.63;;
18159;SDS011;9205;52.032;4.314;2023-05-07T09:03:54;11.17;;;7.83;;
18159;SDS011;9205;52.032;4.314;2023-05-07T09:06:22;10.40;;;7.17;;
18159;SDS011;9205;52.032;4.314;2023-05-07T09:08:50;10.73;;;7.27;;
18159;SDS011;9205;52.032;4.314;2023-05-07T09:11:22;11.30;;;7.27;;
18159;SDS011;9205;52.032;4.314;2023-05-07T09:13:53;12.20;;;6.70;;
18159;SDS011;9205;52.032;4.314;2023-05-07T09:16:25;11.53;;;6.77;;
18159;SDS011;9205;52.032;4.314;2023-05-07T09:18:53;11.27;;;7.07;;
18159;SDS011;9205;52.032;4.314;2023-05-07T09:21:22;10.73;;;6.10;;
18159;SDS011;9205;52.032;4.314;2023-05-07T09:23:51;10.47;;;5.83;;
18159;SDS011;9205;52.032;4.314;2023-05-07T09:26:22;10.07;;;4.80;;
18159;SDS011;9205;52.032;4.314;2023-05-07T09:28:50;8.00;;;4.23;;
18159;SDS011;9205;52.032;4.314;2023-05-07T09:31:20;5.53;;;3.17;;
18159;SDS011;9205;52.032;4.314;2023-05-07T09:33:50;6.20;;;3.80;;
18159;SDS011;9205;52.032;4.314;2023-05-07T09:36:22;9.83;;;4.37;;
18159;SDS011;9205;52.032;4.314;2023-05-07T09:38:49;8.53;;;5.00;;
18159;SDS011;9205;52.032;4.314;2023-05-07T09:41:17;9.10;;;4.87;;
18159;SDS011;9205;52.032;4.314;2023-05-07T09:43:59;9.37;;;5.03;;
18159;SDS011;9205;52.032;4.314;2023-05-07T09:46:34;8.80;;;4.90;;
18159;SDS011;9205;52.032;4.314;2023-05-07T09:49:20;9.63;;;5.97;;
18159;SDS011;9205;52.032;4.314;2023-05-07T09:51:56;8.30;;;5.70;;
18159;SDS011;9205;52.032;4.314;2023-05-07T09:54:28;8.57;;;5.67;;
18159;SDS011;9205;52.032;4.314;2023-05-07T09:56:57;7.50;;;5.27;;
18159;SDS011;9205;52.032;4.314;2023-05-07T09:59:29;9.93;;;5.43;;
18159;SDS011;9205;52.032;4.314;2023-05-07T10:02:02;7.93;;;5.60;;
18159;SDS011;9205;52.032;4.314;2023-05-07T10:04:37;10.83;;;5.50;;
18159;SDS011;9205;52.032;4.314;2023-05-07T10:07:07;11.40;;;5.70;;
18159;SDS011;9205;52.032;4.314;2023-05-07T10:09:36;10.63;;;6.17;;
18159;SDS011;9205;52.032;4.314;2023-05-07T10:12:11;10.37;;;5.67;;
18159;SDS011;9205;52.032;4.314;2023-05-07T10:14:38;12.47;;;5.80;;
18159;SDS011;9205;52.032;4.314;2023-05-07T10:17:07;8.93;;;5.63;;
18159;SDS011;9205;52.032;4.314;2023-05-07T10:19:40;9.63;;;6.00;;
18159;SDS011;9205;52.032;4.314;2023-05-07T10:22:08;7.90;;;5.20;;
18159;SDS011;9205;52.032;4.314;2023-05-07T10:24:41;6.50;;;4.90;;
18159;SDS011;9205;52.032;4.314;2023-05-07T10:27:15;8.77;;;5.13;;
18159;SDS011;9205;52.032;4.314;2023-05-07T10:29:51;8.93;;;4.63;;
18159;SDS011;9205;52.032;4.314;2023-05-07T10:32:40;11.17;;;5.53;;
18159;SDS011;9205;52.032;4.314;2023-05-07T10:35:23;9.23;;;6.10;;
18159;SDS011;9205;52.032;4.314;2023-05-07T10:37:56;10.00;;;5.47;;
18159;SDS011;9205;52.032;4.314;2023-05-07T10:40:26;9.00;;;5.47;;
18159;SDS011;9205;52.032;4.314;2023-05-07T10:42:55;9.60;;;5.60;;
18159;SDS011;9205;52.032;4.314;2023-05-07T10:45:26;8.00;;;5.73;;
18159;SDS011;9205;52.032;4.314;2023-05-07T10:48:06;8.67;;;5.93;;
18159;SDS011;9205;52.032;4.314;2023-05-07T10:50:38;12.50;;;6.00;;
18159;SDS011;9205;52.032;4.314;2023-05-07T10:53:23;15.97;;;5.90;;
18159;SDS011;9205;52.032;4.314;2023-05-07T10:56:25;10.33;;;5.53;;
18159;SDS011;9205;52.032;4.314;2023-05-07T11:02:14;9.07;;;6.00;;
18159;SDS011;9205;52.032;4.314;2023-05-07T11:07:55;11.90;;;5.87;;
18159;SDS011;9205;52.032;4.314;2023-05-07T11:13:46;11.07;;;6.47;;
18159;SDS011;9205;52.032;4.314;2023-05-07T11:16:38;12.33;;;5.83;;
18159;SDS011;9205;52.032;4.314;2023-05-07T11:19:17;10.53;;;5.53;;
18159;SDS011;9205;52.032;4.314;2023-05-07T11:25:23;14.00;;;7.80;;
18159;SDS011;9205;52.032;4.314;2023-05-07T11:28:03;13.07;;;8.20;;
18159;SDS011;9205;52.032;4.314;2023-05-07T11:30:35;16.23;;;8.87;;
18159;SDS011;9205;52.032;4.314;2023-05-07T11:33:05;14.27;;;8.77;;
18159;SDS011;9205;52.032;4.314;2023-05-07T11:35:33;15.20;;;7.93;;
18159;SDS011;9205;52.032;4.314;2023-05-07T11:38:01;15.47;;;8.70;;
18159;SDS011;9205;52.032;4.314;2023-05-07T11:40:32;16.73;;;8.63;;
18159;SDS011;9205;52.032;4.314;2023-05-07T11:43:02;14.77;;;8.47;;
18159;SDS011;9205;52.032;4.314;2023-05-07T11:45:37;15.90;;;8.37;;
18159;SDS011;9205;52.032;4.314;2023-05-07T11:48:04;18.23;;;8.60;;
18159;SDS011;9205;52.032;4.314;2023-05-07T11:50:32;14.93;;;8.37;;
18159;SDS011;9205;52.032;4.314;2023-05-07T11:52:59;14.20;;;8.50;;
18159;SDS011;9205;52.032;4.314;2023-05-07T11:55:26;16.23;;;8.63;;
18159;SDS011;9205;52.032;4.314;2023-05-07T11:57:55;15.33;;;9.27;;
18159;SDS011;9205;52.032;4.314;2023-05-07T12:00:23;15.03;;;8.80;;
18159;SDS011;9205;52.032;4.314;2023-05-07T12:02:50;16.23;;;9.37;;
18159;SDS011;9205;52.032;4.314;2023-05-07T12:05:17;17.77;;;9.70;;
18159;SDS011;9205;52.032;4.314;2023-05-07T12:07:44;20.83;;;9.57;;
18159;SDS011;9205;52.032;4.314;2023-05-07T12:10:12;19.73;;;9.73;;
18159;SDS011;9205;52.032;4.314;2023-05-07T12:12:39;17.30;;;10.23;;
18159;SDS011;9205;52.032;4.314;2023-05-07T12:15:09;16.87;;;9.43;;
18159;SDS011;9205;52.032;4.314;2023-05-07T12:17:36;17.67;;;9.93;;
18159;SDS011;9205;52.032;4.314;2023-05-07T12:20:05;18.33;;;10.90;;
18159;SDS011;9205;52.032;4.314;2023-05-07T12:22:34;19.90;;;9.90;;
18159;SDS011;9205;52.032;4.314;2023-05-07T12:25:03;17.20;;;9.93;;
18159;SDS011;9205;52.032;4.314;2023-05-07T12:27:31;16.43;;;9.07;;
18159;SDS011;9205;52.032;4.314;2023-05-07T12:30:03;17.57;;;10.07;;
18159;SDS011;9205;52.032;4.314;2023-05-07T12:32:32;18.30;;;9.20;;
18159;SDS011;9205;52.032;4.314;2023-05-07T12:35:02;19.17;;;9.07;;
18159;SDS011;9205;52.032;4.314;2023-05-07T12:37:31;18.40;;;9.67;;
18159;SDS011;9205;52.032;4.314;2023-05-07T12:40:05;16.07;;;9.57;;
18159;SDS011;9205;52.032;4.314;2023-05-07T12:42:36;18.00;;;10.00;;
18159;SDS011;9205;52.032;4.314;2023-05-07T12:45:08;18.07;;;10.20;;
18159;SDS011;9205;52.032;4.314;2023-05-07T12:47:37;17.53;;;9.43;;
18159;SDS011;9205;52.032;4.314;2023-05-07T12:50:05;20.80;;;9.97;;
18159;SDS011;9205;52.032;4.314;2023-05-07T12:52:33;16.93;;;9.67;;
18159;SDS011;9205;52.032;4.314;2023-05-07T12:55:05;15.97;;;9.97;;
18159;SDS011;9205;52.032;4.314;2023-05-07T12:57:38;18.67;;;10.40;;
18159;SDS011;9205;52.032;4.314;2023-05-07T13:00:06;20.70;;;11.03;;
18159;SDS011;9205;52.032;4.314;2023-05-07T13:02:38;16.13;;;11.20;;
18159;SDS011;9205;52.032;4.314;2023-05-07T13:05:09;24.20;;;12.27;;
18159;SDS011;9205;52.032;4.314;2023-05-07T13:07:37;20.90;;;10.97;;
18159;SDS011;9205;52.032;4.314;2023-05-07T13:10:04;18.97;;;11.37;;
18159;SDS011;9205;52.032;4.314;2023-05-07T13:12:33;18.73;;;11.57;;
18159;SDS011;9205;52.032;4.314;2023-05-07T13:15:00;21.40;;;11.27;;
18159;SDS011;9205;52.032;4.314;2023-05-07T13:17:28;18.00;;;10.60;;
18159;SDS011;9205;52.032;4.314;2023-05-07T13:19:57;20.17;;;10.70;;
18159;SDS011;9205;52.032;4.314;2023-05-07T13:22:24;19.67;;;11.27;;
18159;SDS011;9205;52.032;4.314;2023-05-07T13:24:52;21.47;;;11.93;;
18159;SDS011;9205;52.032;4.314;2023-05-07T13:27:19;22.53;;;11.27;;
18159;SDS011;9205;52.032;4.314;2023-05-07T13:29:47;18.73;;;11.17;;
18159;SDS011;9205;52.032;4.314;2023-05-07T13:32:14;17.53;;;10.83;;
18159;SDS011;9205;52.032;4.314;2023-05-07T13:34:41;19.47;;;10.87;;
18159;SDS011;9205;52.032;4.314;2023-05-07T13:37:10;20.53;;;12.07;;
18159;SDS011;9205;52.032;4.314;2023-05-07T13:39:37;24.07;;;11.37;;
18159;SDS011;9205;52.032;4.314;2023-05-07T13:42:04;17.13;;;10.80;;
18159;SDS011;9205;52.032;4.314;2023-05-07T13:44:31;18.67;;;12.20;;
18159;SDS011;9205;52.032;4.314;2023-05-07T13:46:58;16.57;;;10.97;;
18159;SDS011;9205;52.032;4.314;2023-05-07T13:49:26;17.73;;;11.27;;
18159;SDS011;9205;52.032;4.314;2023-05-07T13:51:54;19.67;;;12.37;;
18159;SDS011;9205;52.032;4.314;2023-05-07T13:54:23;19.67;;;12.43;;
18159;SDS011;9205;52.032;4.314;2023-05-07T13:56:51;18.13;;;11.30;;
18159;SDS011;9205;52.032;4.314;2023-05-07T13:59:18;19.60;;;11.93;;
18159;SDS011;9205;52.032;4.314;2023-05-07T14:01:45;22.17;;;12.27;;
18159;SDS011;9205;52.032;4.314;2023-05-07T14:04:13;19.17;;;11.17;;
18159;SDS011;9205;52.032;4.314;2023-05-07T14:06:40;21.30;;;12.57;;
18159;SDS011;9205;52.032;4.314;2023-05-07T14:09:07;20.90;;;11.57;;
18159;SDS011;9205;52.032;4.314;2023-05-07T14:11:38;14.97;;;9.87;;
18159;SDS011;9205;52.032;4.314;2023-05-07T14:14:05;18.17;;;10.57;;
18159;SDS011;9205;52.032;4.314;2023-05-07T14:16:35;19.40;;;9.90;;
18159;SDS011;9205;52.032;4.314;2023-05-07T14:19:03;18.40;;;10.27;;
18159;SDS011;9205;52.032;4.314;2023-05-07T14:21:30;17.50;;;10.73;;
18159;SDS011;9205;52.032;4.314;2023-05-07T14:23:57;17.23;;;9.33;;
18159;SDS011;9205;52.032;4.314;2023-05-07T14:26:25;17.33;;;9.53;;
18159;SDS011;9205;52.032;4.314;2023-05-07T14:28:54;17.50;;;9.27;;
18159;SDS011;9205;52.032;4.314;2023-05-07T14:31:23;17.27;;;8.67;;
18159;SDS011;9205;52.032;4.314;2023-05-07T14:33:51;14.80;;;7.77;;
18159;SDS011;9205;52.032;4.314;2023-05-07T14:36:18;19.30;;;9.47;;
18159;SDS011;9205;52.032;4.314;2023-05-07T14:38:48;16.93;;;8.70;;
18159;SDS011;9205;52.032;4.314;2023-05-07T14:41:15;15.93;;;8.37;;
18159;SDS011;9205;52.032;4.314;2023-05-07T14:43:43;21.67;;;7.63;;
18159;SDS011;9205;52.032;4.314;2023-05-07T14:46:16;13.90;;;7.07;;
18159;SDS011;9205;52.032;4.314;2023-05-07T14:48:44;15.10;;;6.50;;
18159;SDS011;9205;52.032;4.314;2023-05-07T14:51:12;12.10;;;6.70;;
18159;SDS011;9205;52.032;4.314;2023-05-07T14:53:40;15.83;;;6.03;;
18159;SDS011;9205;52.032;4.314;2023-05-07T14:56:08;11.73;;;6.40;;
18159;SDS011;9205;52.032;4.314;2023-05-07T14:58:36;12.40;;;5.97;;
18159;SDS011;9205;52.032;4.314;2023-05-07T15:01:03;14.63;;;6.27;;
18159;SDS011;9205;52.032;4.314;2023-05-07T15:03:32;10.87;;;5.67;;
18159;SDS011;9205;52.032;4.314;2023-05-07T15:06:01;14.23;;;5.83;;